createdAt,value
2022-11-27T00:01:54.845Z,8.13
2022-11-27T00:04:57.818Z,7.83
2022-11-27T00:08:00.606Z,8.37
2022-11-27T00:11:08.413Z,8.40
2022-11-27T00:14:12.861Z,7.37
2022-11-27T00:17:16.977Z,8.70
2022-11-27T00:20:19.599Z,8.07
2022-11-27T00:23:22.324Z,7.80
2022-11-27T00:26:25.529Z,9.63
2022-11-27T00:29:29.241Z,7.67
2022-11-27T00:32:33.247Z,7.63
2022-11-27T00:35:36.015Z,9.10
2022-11-27T00:38:39.457Z,7.53
2022-11-27T00:41:42.115Z,7.00
2022-11-27T00:44:47.926Z,8.23
2022-11-27T00:47:51.906Z,8.03
2022-11-27T00:51:00.411Z,7.47
2022-11-27T00:54:03.295Z,7.27
2022-11-27T00:57:06.473Z,7.23
2022-11-27T01:00:10.225Z,6.30
2022-11-27T01:03:14.200Z,6.17
2022-11-27T01:06:18.687Z,6.60
2022-11-27T01:09:21.404Z,7.00
2022-11-27T01:12:24.119Z,7.00
2022-11-27T01:15:26.768Z,6.13
2022-11-27T01:18:31.225Z,6.70
2022-11-27T01:21:43.368Z,7.23
2022-11-27T01:24:46.253Z,6.53
2022-11-27T01:27:48.971Z,6.77
2022-11-27T01:30:52.552Z,6.80
2022-11-27T01:33:58.747Z,6.50
2022-11-27T01:37:01.421Z,6.43
2022-11-27T01:40:04.436Z,6.30
2022-11-27T01:43:07.295Z,6.23
2022-11-27T01:46:29.675Z,5.77
2022-11-27T01:49:37.830Z,5.07
2022-11-27T01:52:44.381Z,5.63
2022-11-27T01:55:52.348Z,5.67
2022-11-27T01:58:56.664Z,5.57
2022-11-27T02:01:59.477Z,5.60
2022-11-27T02:05:03.704Z,6.70
2022-11-27T02:08:10.316Z,5.43
2022-11-27T02:11:18.883Z,5.13
2022-11-27T02:14:31.812Z,5.57
2022-11-27T02:17:44.436Z,5.50
2022-11-27T02:20:56.305Z,5.00
2022-11-27T02:24:39.132Z,5.00
2022-11-27T02:28:04.175Z,4.77
2022-11-27T02:31:15.596Z,4.87
2022-11-27T02:34:25.847Z,4.70
2022-11-27T02:37:35.552Z,4.33
2022-11-27T02:40:43.808Z,4.97
2022-11-27T02:43:50.660Z,5.77
2022-11-27T02:46:56.147Z,5.90
2022-11-27T02:50:00.667Z,6.17
2022-11-27T02:53:08.988Z,5.63
2022-11-27T02:56:16.313Z,6.07
2022-11-27T02:59:20.938Z,5.03
2022-11-27T03:02:31.463Z,4.70
2022-11-27T03:05:38.520Z,4.60
2022-11-27T03:08:49.940Z,4.63
2022-11-27T03:11:53.007Z,5.27
2022-11-27T03:14:55.860Z,4.77
2022-11-27T03:18:06.527Z,4.37
2022-11-27T03:21:20.394Z,4.53
2022-11-27T03:24:23.227Z,4.10
2022-11-27T03:27:33.451Z,4.50
2022-11-27T03:30:36.219Z,4.37
2022-11-27T03:33:40.677Z,4.07
2022-11-27T03:36:43.375Z,4.60
2022-11-27T03:39:46.157Z,4.30
2022-11-27T03:43:00.087Z,3.70
2022-11-27T03:46:11.411Z,3.93
2022-11-27T03:49:25.471Z,4.07
2022-11-27T03:52:36.804Z,4.03
2022-11-27T03:55:49.300Z,3.30
2022-11-27T03:58:56.068Z,4.07
2022-11-27T04:01:58.864Z,4.10
2022-11-27T04:05:02.872Z,4.40
2022-11-27T04:08:06.079Z,4.50
2022-11-27T04:11:09.493Z,4.60
2022-11-27T04:14:12.100Z,4.53
2022-11-27T04:17:14.861Z,3.33
2022-11-27T04:20:19.568Z,4.20
2022-11-27T04:23:22.235Z,4.17
2022-11-27T04:26:24.929Z,4.00
2022-11-27T04:29:27.568Z,4.07
2022-11-27T04:32:30.237Z,4.73
2022-11-27T04:35:34.299Z,4.73
2022-11-27T04:38:36.948Z,5.17
2022-11-27T04:41:39.978Z,4.10
2022-11-27T04:44:42.900Z,4.17
2022-11-27T04:47:45.944Z,4.50
2022-11-27T04:50:50.059Z,4.97
2022-11-27T04:53:52.678Z,5.53
2022-11-27T04:56:55.664Z,5.17
2022-11-27T04:59:58.379Z,5.60
2022-11-27T05:03:01.133Z,4.77
2022-11-27T05:06:05.483Z,4.70
2022-11-27T05:09:08.432Z,4.93
2022-11-27T05:12:11.328Z,4.40
2022-11-27T05:15:14.004Z,4.30
2022-11-27T05:18:16.659Z,4.27
2022-11-27T05:21:20.615Z,5.30
2022-11-27T05:24:25.581Z,5.20
2022-11-27T05:27:46.529Z,4.60
2022-11-27T05:30:58.819Z,4.90
2022-11-27T05:34:42.936Z,4.20
2022-11-27T05:38:01.233Z,4.43
2022-11-27T05:41:10.833Z,4.73
2022-11-27T05:44:43.984Z,3.80
2022-11-27T05:48:07.757Z,4.43
2022-11-27T05:51:34.027Z,4.10
2022-11-27T05:54:56.811Z,4.43
2022-11-27T05:58:22.043Z,4.27
2022-11-27T06:01:51.073Z,3.83
2022-11-27T06:05:25.382Z,4.37
2022-11-27T06:08:37.471Z,4.00
2022-11-27T06:12:03.929Z,4.50
2022-11-27T06:15:23.596Z,4.13
2022-11-27T06:19:13.297Z,4.50
2022-11-27T06:22:40.381Z,3.80
2022-11-27T06:29:44.706Z,4.13
2022-11-27T06:33:05.509Z,4.43
2022-11-27T06:36:28.772Z,4.57
2022-11-27T06:40:11.834Z,3.57
2022-11-27T06:43:55.676Z,4.07
2022-11-27T06:47:30.370Z,4.60
2022-11-27T06:51:02.087Z,3.93
2022-11-27T06:54:38.811Z,3.53
2022-11-27T06:58:26.494Z,3.70
2022-11-27T07:05:28.327Z,3.87
2022-11-27T07:13:02.694Z,3.93
2022-11-27T07:20:37.681Z,4.00
2022-11-27T07:28:15.990Z,4.57
2022-11-27T07:32:15.746Z,5.37
2022-11-27T07:36:01.462Z,4.67
2022-11-27T07:48:01.346Z,4.07
2022-11-27T07:59:26.094Z,4.60
2022-11-27T08:02:39.832Z,4.40
2022-11-27T08:05:59.489Z,4.13
2022-11-27T08:09:29.963Z,4.47
2022-11-27T08:12:44.337Z,4.13
2022-11-27T08:19:34.979Z,4.20
2022-11-27T08:22:43.378Z,4.37
2022-11-27T08:25:56.007Z,4.07
2022-11-27T08:29:02.894Z,4.07
2022-11-27T08:32:10.248Z,4.03
2022-11-27T08:35:16.616Z,4.63
2022-11-27T08:38:34.457Z,4.30
2022-11-27T08:41:47.597Z,4.13
2022-11-27T08:45:17.614Z,4.27
2022-11-27T08:52:40.333Z,3.90
2022-11-27T08:56:24.721Z,4.33
2022-11-27T09:00:11.047Z,3.83
2022-11-27T09:03:49.411Z,4.37
2022-11-27T09:07:28.428Z,4.13
2022-11-27T09:17:50.106Z,3.83
2022-11-27T09:21:06.182Z,4.70
2022-11-27T09:24:17.493Z,3.90
2022-11-27T09:27:28.798Z,4.30
2022-11-27T09:30:38.818Z,4.17
2022-11-27T09:33:52.004Z,4.20
2022-11-27T09:36:59.686Z,4.17
2022-11-27T09:40:13.213Z,4.30
2022-11-27T09:43:33.900Z,3.63
2022-11-27T09:46:47.091Z,4.23
2022-11-27T09:50:03.344Z,4.10
2022-11-27T09:53:22.006Z,4.13
2022-11-27T09:56:37.785Z,4.53
2022-11-27T09:59:54.256Z,4.30
2022-11-27T10:03:05.196Z,4.43
2022-11-27T10:06:29.510Z,4.23
2022-11-27T10:09:51.415Z,3.47
2022-11-27T10:13:10.138Z,3.90
2022-11-27T10:16:28.364Z,4.47
2022-11-27T10:19:53.964Z,5.27
2022-11-27T10:23:21.123Z,3.93
2022-11-27T10:26:35.348Z,4.37
2022-11-27T10:29:53.380Z,3.80
2022-11-27T10:33:09.173Z,4.07
2022-11-27T10:36:23.826Z,4.00
2022-11-27T10:39:47.662Z,4.13
2022-11-27T10:43:18.122Z,4.33
2022-11-27T10:46:34.488Z,8.57
2022-11-27T10:49:49.163Z,4.40
2022-11-27T10:53:07.784Z,4.60
2022-11-27T10:56:29.694Z,4.90
2022-11-27T10:59:41.331Z,3.90
2022-11-27T11:02:45.044Z,3.73
2022-11-27T11:09:29.802Z,3.60
2022-11-27T11:12:34.357Z,3.20
2022-11-27T11:15:51.611Z,2.90
2022-11-27T11:18:57.485Z,3.00
2022-11-27T11:22:19.079Z,3.00
2022-11-27T11:25:28.830Z,2.37
2022-11-27T11:28:44.850Z,2.73
2022-11-27T11:32:02.186Z,2.50
2022-11-27T11:35:12.177Z,2.80
2022-11-27T11:38:20.991Z,2.53
2022-11-27T11:41:26.008Z,2.60
2022-11-27T11:44:37.198Z,2.87
2022-11-27T11:47:46.276Z,3.53
2022-11-27T11:50:54.191Z,3.07
2022-11-27T11:54:04.381Z,2.87
2022-11-27T11:57:18.502Z,2.50
2022-11-27T12:00:30.163Z,2.40
2022-11-27T12:03:49.165Z,2.73
2022-11-27T12:07:00.427Z,2.50
2022-11-27T12:10:09.266Z,2.50
2022-11-27T12:13:30.282Z,2.30
2022-11-27T12:16:48.296Z,2.20
2022-11-27T12:20:14.345Z,1.77
2022-11-27T12:23:34.196Z,2.00
2022-11-27T12:26:55.520Z,1.50
2022-11-27T12:30:07.187Z,1.98
2022-11-27T12:33:54.543Z,1.65
2022-11-27T12:37:14.198Z,1.40
2022-11-27T12:40:39.430Z,1.70
2022-11-27T12:43:46.451Z,1.52
2022-11-27T12:46:55.721Z,1.45
2022-11-27T12:50:03.848Z,1.38
2022-11-27T12:53:23.124Z,1.55
2022-11-27T12:56:31.999Z,1.40
2022-11-27T12:59:39.955Z,1.30
2022-11-27T13:02:50.903Z,1.48
2022-11-27T13:05:59.097Z,1.40
2022-11-27T13:09:05.728Z,1.45
2022-11-27T13:12:09.930Z,2.03
2022-11-27T13:15:22.547Z,1.38
2022-11-27T13:18:33.632Z,1.45
2022-11-27T13:21:39.456Z,1.30
2022-11-27T13:24:43.956Z,1.23
2022-11-27T13:27:50.459Z,1.50
2022-11-27T13:30:55.496Z,1.42
2022-11-27T13:34:01.275Z,1.40
2022-11-27T13:37:07.057Z,2.00
2022-11-27T13:40:21.565Z,1.40
2022-11-27T13:43:29.793Z,1.50
2022-11-27T13:46:45.007Z,1.70
2022-11-27T13:49:59.779Z,1.80
2022-11-27T13:53:06.228Z,1.60
2022-11-27T13:56:10.517Z,1.70
2022-11-27T13:59:21.355Z,1.90
2022-11-27T14:02:24.784Z,1.77
2022-11-27T14:05:39.856Z,1.77
2022-11-27T14:08:52.115Z,1.67
2022-11-27T14:11:56.889Z,1.67
2022-11-27T14:15:05.752Z,1.90
2022-11-27T14:18:17.280Z,1.83
2022-11-27T14:21:26.579Z,1.60
2022-11-27T14:24:40.904Z,1.73
2022-11-27T14:27:45.691Z,1.80
2022-11-27T14:30:50.809Z,1.77
2022-11-27T14:34:14.163Z,1.77
2022-11-27T14:37:25.204Z,2.00
2022-11-27T14:40:28.937Z,2.50
2022-11-27T14:43:32.959Z,1.67
2022-11-27T14:46:37.845Z,1.73
2022-11-27T14:49:42.083Z,2.00
2022-11-27T14:52:52.543Z,1.80
2022-11-27T14:55:57.906Z,2.10
2022-11-27T14:59:03.217Z,1.90
2022-11-27T15:02:18.132Z,2.40
2022-11-27T15:05:23.344Z,2.40
2022-11-27T15:08:26.940Z,1.67
2022-11-27T15:11:54.589Z,2.43
2022-11-27T15:14:59.681Z,2.23
2022-11-27T15:18:05.488Z,2.27
2022-11-27T15:21:12.323Z,2.03
2022-11-27T15:24:30.480Z,1.87
2022-11-27T15:27:34.481Z,2.00
2022-11-27T15:30:44.999Z,2.47
2022-11-27T15:33:56.666Z,2.00
2022-11-27T15:37:01.648Z,2.27
2022-11-27T15:40:16.984Z,2.13
2022-11-27T15:43:19.668Z,3.20
2022-11-27T15:46:30.035Z,2.40
2022-11-27T15:49:32.956Z,2.20
2022-11-27T15:52:35.646Z,2.30
2022-11-27T15:55:38.399Z,2.80
2022-11-27T15:58:41.672Z,2.60
2022-11-27T16:01:45.769Z,2.83
2022-11-27T16:04:48.464Z,2.57
2022-11-27T16:07:54.925Z,2.77
2022-11-27T16:11:00.679Z,3.13
2022-11-27T16:14:03.336Z,3.17
2022-11-27T16:17:07.347Z,2.87
2022-11-27T16:20:10.888Z,3.40
2022-11-27T16:23:13.535Z,4.00
2022-11-27T16:26:16.208Z,3.60
2022-11-27T16:29:19.000Z,4.00
2022-11-27T16:32:22.971Z,4.23
2022-11-27T16:35:26.523Z,4.10
2022-11-27T16:38:29.406Z,4.20
2022-11-27T16:41:32.191Z,3.57
2022-11-27T16:44:35.107Z,3.03
2022-11-27T16:47:50.264Z,3.20
2022-11-27T16:51:02.211Z,2.90
2022-11-27T16:54:07.477Z,3.23
2022-11-27T16:57:10.220Z,4.43
2022-11-27T17:00:14.328Z,3.77
2022-11-27T17:03:20.963Z,4.27
2022-11-27T17:06:27.001Z,3.67
2022-11-27T17:09:31.235Z,4.17
2022-11-27T17:12:41.854Z,3.37
2022-11-27T17:15:45.054Z,3.47
2022-11-27T17:18:49.654Z,3.27
2022-11-27T17:21:52.365Z,2.80
2022-11-27T17:24:57.809Z,3.17
2022-11-27T17:28:09.546Z,3.00
2022-11-27T17:31:28.632Z,9.57
2022-11-27T17:34:50.640Z,3.80
2022-11-27T17:38:06.617Z,2.70
2022-11-27T17:41:16.782Z,3.33
2022-11-27T17:44:32.567Z,2.83
2022-11-27T17:47:42.858Z,2.97
2022-11-27T17:50:52.163Z,3.00
2022-11-27T17:54:02.576Z,2.60
2022-11-27T17:57:10.059Z,3.67
2022-11-27T18:00:18.874Z,3.40
2022-11-27T18:03:23.404Z,3.60
2022-11-27T18:06:29.545Z,3.33
2022-11-27T18:09:34.767Z,3.20
2022-11-27T18:12:39.728Z,2.90
2022-11-27T18:15:44.642Z,3.30
2022-11-27T18:18:50.787Z,3.10
2022-11-27T18:21:56.971Z,3.97
2022-11-27T18:25:02.024Z,4.80
2022-11-27T18:28:07.045Z,5.30
2022-11-27T18:31:13.205Z,6.40
2022-11-27T18:34:18.700Z,4.47
2022-11-27T18:37:25.852Z,3.03
2022-11-27T18:40:35.924Z,3.23
2022-11-27T18:43:41.276Z,3.33
2022-11-27T18:46:46.004Z,3.20
2022-11-27T18:49:50.509Z,3.43
2022-11-27T18:52:56.977Z,3.17
2022-11-27T18:56:07.152Z,2.90
2022-11-27T18:59:12.297Z,2.87
2022-11-27T19:02:17.571Z,2.90
2022-11-27T19:05:23.053Z,2.87
2022-11-27T19:08:30.395Z,2.93
2022-11-27T19:11:36.379Z,3.37
2022-11-27T19:14:41.676Z,3.30
2022-11-27T19:17:46.972Z,2.83
2022-11-27T19:20:51.157Z,3.77
2022-11-27T19:23:59.464Z,4.77
2022-11-27T19:27:04.437Z,4.80
2022-11-27T19:30:09.901Z,4.23
2022-11-27T19:33:14.351Z,4.00
2022-11-27T19:36:19.093Z,4.70
2022-11-27T19:39:25.442Z,4.27
2022-11-27T19:42:30.086Z,4.23
2022-11-27T19:45:36.794Z,4.30
2022-11-27T19:48:40.997Z,4.30
2022-11-27T19:51:50.080Z,4.17
2022-11-27T19:54:56.529Z,4.27
2022-11-27T19:58:02.061Z,4.70
2022-11-27T20:01:08.770Z,3.93
2022-11-27T20:04:15.949Z,4.00
2022-11-27T20:07:22.447Z,4.10
2022-11-27T20:10:29.265Z,4.50
2022-11-27T20:13:36.894Z,4.50
2022-11-27T20:16:44.127Z,4.23
2022-11-27T20:19:49.182Z,3.97
2022-11-27T20:22:54.125Z,3.90
2022-11-27T20:26:01.757Z,3.53
2022-11-27T20:29:07.399Z,4.40
2022-11-27T20:32:12.392Z,4.60
2022-11-27T20:35:18.090Z,4.60
2022-11-27T20:38:24.469Z,5.10
2022-11-27T20:41:31.971Z,4.73
2022-11-27T20:44:36.620Z,5.23
2022-11-27T20:47:41.286Z,5.10
2022-11-27T20:50:51.125Z,5.13
2022-11-27T20:53:59.709Z,5.73
2022-11-27T20:57:14.437Z,5.47
2022-11-27T21:00:21.653Z,5.53
2022-11-27T21:03:26.499Z,4.63
2022-11-27T21:06:33.842Z,5.00
2022-11-27T21:09:45.887Z,5.23
2022-11-27T21:12:53.035Z,5.87
2022-11-27T21:15:57.583Z,5.67
2022-11-27T21:19:04.156Z,5.87
2022-11-27T21:22:10.626Z,4.77
2022-11-27T21:25:15.739Z,5.40
2022-11-27T21:28:23.168Z,5.47
2022-11-27T21:31:37.057Z,4.77
2022-11-27T21:34:43.222Z,5.23
2022-11-27T21:37:53.605Z,5.00
2022-11-27T21:41:01.012Z,5.90
2022-11-27T21:44:08.869Z,5.47
2022-11-27T21:47:13.899Z,5.70
2022-11-27T21:50:18.603Z,5.47
2022-11-27T21:53:23.745Z,5.10
2022-11-27T21:56:33.782Z,5.07
2022-11-27T21:59:40.617Z,5.63
2022-11-27T22:02:46.409Z,6.10
2022-11-27T22:06:01.842Z,5.60
2022-11-27T22:09:13.387Z,5.10
2022-11-27T22:12:19.773Z,5.40
2022-11-27T22:15:25.577Z,5.50
2022-11-27T22:18:31.572Z,5.30
2022-11-27T22:21:36.136Z,5.17
2022-11-27T22:24:42.444Z,5.03
2022-11-27T22:27:47.295Z,5.67
2022-11-27T22:30:53.256Z,5.40
2022-11-27T22:33:58.596Z,4.87
2022-11-27T22:37:06.232Z,5.30
2022-11-27T22:40:11.269Z,5.63
2022-11-27T22:43:16.195Z,5.00
2022-11-27T22:46:25.446Z,4.93
2022-11-27T22:49:30.222Z,5.30
2022-11-27T22:52:34.817Z,4.83
2022-11-27T22:55:39.846Z,5.10
2022-11-27T22:58:45.136Z,5.10
2022-11-27T23:01:52.079Z,5.13
2022-11-27T23:04:56.455Z,5.30
2022-11-27T23:08:00.779Z,5.00
2022-11-27T23:11:07.453Z,5.10
2022-11-27T23:14:12.015Z,5.00
2022-11-27T23:17:18.786Z,5.30
2022-11-27T23:20:23.498Z,5.00
2022-11-27T23:23:29.273Z,5.07
2022-11-27T23:26:34.029Z,5.63
2022-11-27T23:29:38.414Z,4.47
2022-11-27T23:32:46.129Z,4.80
2022-11-27T23:35:50.836Z,4.43
2022-11-27T23:38:55.962Z,5.27
2022-11-27T23:42:00.510Z,4.73
2022-11-27T23:45:05.414Z,5.00
2022-11-27T23:48:11.938Z,4.37
2022-11-27T23:51:17.800Z,5.10
2022-11-27T23:54:22.086Z,4.97
2022-11-27T23:57:27.026Z,5.30
